Lampang, Thailand

7:33 PM ICT on July 28, 2016 (GMT +0700)
Lampang | | Change Station

Elev 794 ft 18.28 °N, 99.51 °E | Updated 33 minutes ago

Mostly Cloudy
Mostly Cloudy
84 °F
Feels Like 94 °F
N
2
Wind Variable Wind from Variable

Today
High -- | Low -- °F
--% Chance of Precip.
Yesterday
High -- | Low -- °F
Precip. -- in
Pressure 29.68 in
Visibility 6.2 miles
Clouds Scattered Clouds 2500 ft
Mostly Cloudy 10000 ft
Heat Index 94 °F
Dew Point 77 °F
Humidity 79%
Rainfall 0.00 in
Snow Depth Not available.
5:58 AM 6:58 PM
Waning Crescent, 32% visible
METAR VTCL 281200Z VRB02KT 9999 SCT025 BKN100 29/25 Q1005 A2968
Pressure 29.68 in
Visibility 6.2 miles
Clouds Scattered Clouds 2500 ft
Mostly Cloudy 10000 ft
Heat Index 94 °F
Dew Point 77 °F
Humidity 79%
Rainfall 0.00 in
Snow Depth Not available.
5:58 AM 6:58 PM
Waning Crescent, 32% visible
METAR VTCL 281200Z VRB02KT 9999 SCT025 BKN100 29/25 Q1005 A2968

10-Day Weather Forecast

No radar image for this location.
×

Almanac

Astronomy

Jul. 28, 2016 Rise Set
Actual Time
Civil Twilight
Nautical Twilight
Astronomical Twilight
Moon
Length of Visible Light
Length of Day
Tomorrow will be .
, % of the Moon is Illuminated

Today's Extremes

Country Highs Country Lows

Community

WunderPhotos

Upload Photos

1,928,099 photos uploaded!

WunderBlog® & News

Nearby

Air Quality

  Air Quality AQ Index Pollutant
Not available.

Snow Depth

Station Depth Elevation

Earthquake Activity

City Distance Mag. Time & Date
Minimum magnitude displayed is 2.5.

Coastal Water Temperatures

Place Temperature

Stations

Nearby Weather Stations

Station Location Temp. Windchill Dew Point Humidity Wind Precip. Elev Updated Type